Saint Angelo, United Kingdom
Current Conditions -  °F | °C
As of 5:00 PM on Friday 31 Oct 2014 (Local Time) from EISG Reporting Station
Broken Clouds Broken Clouds  
Wind Chill: 54°   Ceiling: 4300
Heat Index: 54°   Visibility: 6mi
Dew Point: 50°   Wind: 6mph
Humidity: 88%   Direction: 200°SSW
Pressure: 29.59"   Gusts: NA
Location:  54.4°N, 7.65°W
Report Text: EISG 311700Z 20005KT 160V230 9999 FEW031 BKN043 BKN050 12/10 Q1002
Loading
Personal Weather Stations






























Interactive Weather Map New forecast layout! Learn more

10-Day Weather Forecast

Advertisements
Track Severe Weather on mobile